sensor_id;sensor_type;location;lat;lon;timestamp;pressure;altitude;pressure_sealevel;temperature;humidity
10948;BME280;5526;42.070;24.752;2023-04-28T00:01:30;99159.19;;;11.77;50.97
10948;BME280;5526;42.070;24.752;2023-04-28T00:03:57;99163.38;;;11.73;50.70
10948;BME280;5526;42.070;24.752;2023-04-28T00:06:25;99158.09;;;11.73;50.67
10948;BME280;5526;42.070;24.752;2023-04-28T00:08:52;99157.59;;;11.76;50.73
10948;BME280;5526;42.070;24.752;2023-04-28T00:11:20;99147.31;;;11.74;50.96
10948;BME280;5526;42.070;24.752;2023-04-28T00:13:47;99150.44;;;11.71;50.86
10948;BME280;5526;42.070;24.752;2023-04-28T00:16:14;99157.56;;;11.71;50.38
10948;BME280;5526;42.070;24.752;2023-04-28T00:18:41;99156.97;;;11.64;50.32
10948;BME280;5526;42.070;24.752;2023-04-28T00:21:08;99152.00;;;11.62;50.35
10948;BME280;5526;42.070;24.752;2023-04-28T00:23:35;99154.53;;;11.57;50.37
10948;BME280;5526;42.070;24.752;2023-04-28T00:26:03;99153.22;;;11.55;50.17
10948;BME280;5526;42.070;24.752;2023-04-28T00:28:32;99154.28;;;11.54;50.09
10948;BME280;5526;42.070;24.752;2023-04-28T00:30:59;99148.44;;;11.47;50.16
10948;BME280;5526;42.070;24.752;2023-04-28T00:33:26;99151.56;;;11.44;49.83
10948;BME280;5526;42.070;24.752;2023-04-28T00:35:58;99147.09;;;11.39;50.03
10948;BME280;5526;42.070;24.752;2023-04-28T00:38:25;99158.69;;;11.43;49.76
10948;BME280;5526;42.070;24.752;2023-04-28T00:40:52;99150.00;;;11.43;49.86
10948;BME280;5526;42.070;24.752;2023-04-28T00:43:19;99157.63;;;11.39;49.69
10948;BME280;5526;42.070;24.752;2023-04-28T00:45:48;99150.50;;;11.40;49.85
10948;BME280;5526;42.070;24.752;2023-04-28T00:48:15;99145.22;;;11.40;49.77
10948;BME280;5526;42.070;24.752;2023-04-28T00:50:42;99137.53;;;11.33;50.05
10948;BME280;5526;42.070;24.752;2023-04-28T00:53:10;99150.50;;;11.40;50.12
10948;BME280;5526;42.070;24.752;2023-04-28T00:55:38;99151.53;;;11.34;50.42
10948;BME280;5526;42.070;24.752;2023-04-28T00:58:06;99146.16;;;11.19;50.34
10948;BME280;5526;42.070;24.752;2023-04-28T01:00:33;99156.66;;;11.14;50.37
10948;BME280;5526;42.070;24.752;2023-04-28T01:03:02;99159.56;;;11.17;50.21
10948;BME280;5526;42.070;24.752;2023-04-28T01:05:29;99158.22;;;11.10;50.77
10948;BME280;5526;42.070;24.752;2023-04-28T01:07:56;99156.28;;;11.00;51.10
10948;BME280;5526;42.070;24.752;2023-04-28T01:10:23;99147.09;;;11.03;51.10
10948;BME280;5526;42.070;24.752;2023-04-28T01:12:50;99153.91;;;10.99;50.89
10948;BME280;5526;42.070;24.752;2023-04-28T01:15:18;99149.69;;;10.98;51.09
10948;BME280;5526;42.070;24.752;2023-04-28T01:17:46;99159.66;;;10.96;51.48
10948;BME280;5526;42.070;24.752;2023-04-28T01:20:14;99152.00;;;10.89;51.61
10948;BME280;5526;42.070;24.752;2023-04-28T01:22:41;99159.03;;;10.84;52.05
10948;BME280;5526;42.070;24.752;2023-04-28T01:25:10;99163.22;;;10.80;51.75
10948;BME280;5526;42.070;24.752;2023-04-28T01:27:37;99151.38;;;10.77;51.99
10948;BME280;5526;42.070;24.752;2023-04-28T01:30:05;99153.44;;;10.75;51.80
10948;BME280;5526;42.070;24.752;2023-04-28T01:32:32;99156.31;;;10.74;51.86
10948;BME280;5526;42.070;24.752;2023-04-28T01:34:59;99156.31;;;10.74;51.94
10948;BME280;5526;42.070;24.752;2023-04-28T01:37:27;99155.53;;;10.73;52.06
10948;BME280;5526;42.070;24.752;2023-04-28T01:39:54;99157.31;;;10.68;52.10
10948;BME280;5526;42.070;24.752;2023-04-28T01:42:22;99159.72;;;10.69;51.79
10948;BME280;5526;42.070;24.752;2023-04-28T01:44:49;99162.84;;;10.66;52.27
10948;BME280;5526;42.070;24.752;2023-04-28T01:47:16;99162.19;;;10.54;52.29
10948;BME280;5526;42.070;24.752;2023-04-28T01:49:44;99170.53;;;10.46;52.82
10948;BME280;5526;42.070;24.752;2023-04-28T01:52:12;99164.47;;;10.46;52.24
10948;BME280;5526;42.070;24.752;2023-04-28T01:54:39;99163.69;;;10.45;52.60
10948;BME280;5526;42.070;24.752;2023-04-28T01:57:06;99168.13;;;10.40;52.40
10948;BME280;5526;42.070;24.752;2023-04-28T01:59:35;99161.25;;;10.39;52.50
10948;BME280;5526;42.070;24.752;2023-04-28T02:02:02;99159.66;;;10.38;52.03
10948;BME280;5526;42.070;24.752;2023-04-28T02:04:29;99172.19;;;10.31;52.50
10948;BME280;5526;42.070;24.752;2023-04-28T02:06:56;99172.72;;;10.28;52.11
10948;BME280;5526;42.070;24.752;2023-04-28T02:09:23;99165.84;;;10.27;51.79
10948;BME280;5526;42.070;24.752;2023-04-28T02:11:50;99162.63;;;10.20;51.75
10948;BME280;5526;42.070;24.752;2023-04-28T02:14:17;99172.13;;;10.21;51.75
10948;BME280;5526;42.070;24.752;2023-04-28T02:16:45;99161.41;;;10.06;51.94
10948;BME280;5526;42.070;24.752;2023-04-28T02:19:12;99175.72;;;10.15;51.96
10948;BME280;5526;42.070;24.752;2023-04-28T02:21:40;99172.22;;;10.09;52.21
10948;BME280;5526;42.070;24.752;2023-04-28T02:24:08;99170.81;;;10.02;51.54
10948;BME280;5526;42.070;24.752;2023-04-28T02:26:35;99177.25;;;10.11;51.28
10948;BME280;5526;42.070;24.752;2023-04-28T02:29:02;99180.84;;;10.05;50.99
10948;BME280;5526;42.070;24.752;2023-04-28T02:31:29;99185.66;;;10.08;50.98
10948;BME280;5526;42.070;24.752;2023-04-28T02:33:58;99191.34;;;10.05;51.65
10948;BME280;5526;42.070;24.752;2023-04-28T02:36:25;99182.13;;;10.02;51.39
10948;BME280;5526;42.070;24.752;2023-04-28T02:38:53;99191.84;;;10.02;51.05
10948;BME280;5526;42.070;24.752;2023-04-28T02:41:20;99177.03;;;9.96;50.80
10948;BME280;5526;42.070;24.752;2023-04-28T02:43:47;99180.69;;;9.95;50.58
10948;BME280;5526;42.070;24.752;2023-04-28T02:46:14;99183.03;;;9.91;50.53
10948;BME280;5526;42.070;24.752;2023-04-28T02:48:41;99181.75;;;9.94;50.24
10948;BME280;5526;42.070;24.752;2023-04-28T02:51:09;99177.78;;;9.91;50.56
10948;BME280;5526;42.070;24.752;2023-04-28T02:53:38;99180.16;;;9.93;50.86
10948;BME280;5526;42.070;24.752;2023-04-28T02:56:05;99184.84;;;9.91;50.52
10948;BME280;5526;42.070;24.752;2023-04-28T02:58:32;99186.44;;;9.92;50.33
10948;BME280;5526;42.070;24.752;2023-04-28T03:00:59;99182.72;;;9.88;49.64
10948;BME280;5526;42.070;24.752;2023-04-28T03:03:26;99181.69;;;9.89;49.68
10948;BME280;5526;42.070;24.752;2023-04-28T03:05:53;99183.22;;;9.85;50.16
10948;BME280;5526;42.070;24.752;2023-04-28T03:08:23;99179.53;;;9.86;49.61
10948;BME280;5526;42.070;24.752;2023-04-28T03:10:50;99179.72;;;9.79;49.86
10948;BME280;5526;42.070;24.752;2023-04-28T03:13:17;99174.28;;;9.86;49.45
10948;BME280;5526;42.070;24.752;2023-04-28T03:15:44;99179.50;;;9.81;49.58
10948;BME280;5526;42.070;24.752;2023-04-28T03:18:11;99173.72;;;9.84;49.15
10948;BME280;5526;42.070;24.752;2023-04-28T03:20:38;99184.81;;;9.86;49.43
10948;BME280;5526;42.070;24.752;2023-04-28T03:23:05;99193.13;;;9.78;48.92
10948;BME280;5526;42.070;24.752;2023-04-28T03:25:33;99183.06;;;9.75;49.20
10948;BME280;5526;42.070;24.752;2023-04-28T03:28:00;99188.97;;;9.82;49.68
10948;BME280;5526;42.070;24.752;2023-04-28T03:30:28;99197.50;;;9.72;49.22
10948;BME280;5526;42.070;24.752;2023-04-28T03:32:55;99184.59;;;9.71;49.71
10948;BME280;5526;42.070;24.752;2023-04-28T03:35:22;99201.53;;;9.80;49.42
10948;BME280;5526;42.070;24.752;2023-04-28T03:37:49;99203.91;;;9.81;49.29
10948;BME280;5526;42.070;24.752;2023-04-28T03:40:16;99197.75;;;9.71;49.54
10948;BME280;5526;42.070;24.752;2023-04-28T03:42:45;99217.53;;;9.78;49.54
10948;BME280;5526;42.070;24.752;2023-04-28T03:45:12;99207.97;;;9.89;49.39
10948;BME280;5526;42.070;24.752;2023-04-28T03:47:39;99218.06;;;9.97;49.28
10948;BME280;5526;42.070;24.752;2023-04-28T03:50:07;99222.91;;;10.05;49.38
10948;BME280;5526;42.070;24.752;2023-04-28T03:52:34;99230.34;;;10.08;48.65
10948;BME280;5526;42.070;24.752;2023-04-28T03:55:01;99237.91;;;10.26;48.46
10948;BME280;5526;42.070;24.752;2023-04-28T03:57:28;99236.34;;;10.25;48.31
10948;BME280;5526;42.070;24.752;2023-04-28T03:59:56;99240.91;;;10.34;47.25
10948;BME280;5526;42.070;24.752;2023-04-28T04:02:23;99256.50;;;10.41;47.47
10948;BME280;5526;42.070;24.752;2023-04-28T04:04:50;99254.78;;;10.51;47.49
10948;BME280;5526;42.070;24.752;2023-04-28T04:07:17;99257.97;;;10.53;46.87
10948;BME280;5526;42.070;24.752;2023-04-28T04:09:44;99258.84;;;10.59;47.07
10948;BME280;5526;42.070;24.752;2023-04-28T04:12:11;99268.03;;;10.83;46.90
10948;BME280;5526;42.070;24.752;2023-04-28T04:14:39;99270.03;;;10.71;46.97
10948;BME280;5526;42.070;24.752;2023-04-28T04:17:07;99274.41;;;10.87;46.23
10948;BME280;5526;42.070;24.752;2023-04-28T04:19:34;99273.31;;;10.83;46.29
10948;BME280;5526;42.070;24.752;2023-04-28T04:22:01;99283.91;;;10.93;45.72
10948;BME280;5526;42.070;24.752;2023-04-28T04:24:29;99287.88;;;10.95;45.28
10948;BME280;5526;42.070;24.752;2023-04-28T04:26:56;99292.56;;;11.15;45.22
10948;BME280;5526;42.070;24.752;2023-04-28T04:29:23;99289.72;;;11.21;45.50
10948;BME280;5526;42.070;24.752;2023-04-28T04:31:50;99281.78;;;11.48;44.81
10948;BME280;5526;42.070;24.752;2023-04-28T04:34:18;99287.97;;;11.32;44.55
10948;BME280;5526;42.070;24.752;2023-04-28T04:36:45;99292.41;;;11.58;44.32
10948;BME280;5526;42.070;24.752;2023-04-28T04:39:12;99290.91;;;11.62;44.97
10948;BME280;5526;42.070;24.752;2023-04-28T04:41:39;99300.47;;;11.73;44.72
10948;BME280;5526;42.070;24.752;2023-04-28T04:44:06;99300.53;;;11.83;44.00
10948;BME280;5526;42.070;24.752;2023-04-28T04:46:33;99302.03;;;11.69;44.07
10948;BME280;5526;42.070;24.752;2023-04-28T04:49:00;99303.13;;;11.78;44.05
10948;BME280;5526;42.070;24.752;2023-04-28T04:51:29;99301.56;;;11.77;44.18
10948;BME280;5526;42.070;24.752;2023-04-28T04:53:56;99312.72;;;11.89;44.26
10948;BME280;5526;42.070;24.752;2023-04-28T04:56:23;99313.03;;;11.61;44.54
10948;BME280;5526;42.070;24.752;2023-04-28T04:58:51;99322.09;;;11.75;43.95
10948;BME280;5526;42.070;24.752;2023-04-28T05:01:18;99285.38;;;12.66;41.11
10948;BME280;5526;42.070;24.752;2023-04-28T05:03:45;99319.13;;;12.49;41.79
10948;BME280;5526;42.070;24.752;2023-04-28T05:06:12;99320.13;;;12.38;42.51
10948;BME280;5526;42.070;24.752;2023-04-28T05:08:40;99324.94;;;12.05;43.74
10948;BME280;5526;42.070;24.752;2023-04-28T05:11:07;99332.50;;;12.33;42.62
10948;BME280;5526;42.070;24.752;2023-04-28T05:13:34;99333.47;;;12.22;43.27
10948;BME280;5526;42.070;24.752;2023-04-28T05:16:02;99326.06;;;12.14;43.32
10948;BME280;5526;42.070;24.752;2023-04-28T05:18:29;99327.13;;;12.18;43.35
10948;BME280;5526;42.070;24.752;2023-04-28T05:20:56;99328.84;;;12.44;42.10
10948;BME280;5526;42.070;24.752;2023-04-28T05:23:23;99322.22;;;12.36;42.01
10948;BME280;5526;42.070;24.752;2023-04-28T05:25:51;99333.09;;;12.45;42.44
10948;BME280;5526;42.070;24.752;2023-04-28T05:28:19;99336.59;;;12.60;42.06
10948;BME280;5526;42.070;24.752;2023-04-28T05:30:46;99340.72;;;13.08;41.94
10948;BME280;5526;42.070;24.752;2023-04-28T05:33:13;99346.84;;;13.34;41.69
10948;BME280;5526;42.070;24.752;2023-04-28T05:35:41;99359.81;;;13.25;41.43
10948;BME280;5526;42.070;24.752;2023-04-28T05:38:08;99351.63;;;12.60;40.21
10948;BME280;5526;42.070;24.752;2023-04-28T05:40:35;99348.00;;;12.81;40.64
10948;BME280;5526;42.070;24.752;2023-04-28T05:43:03;99349.50;;;12.57;40.30
10948;BME280;5526;42.070;24.752;2023-04-28T05:45:30;99351.41;;;12.71;40.84
10948;BME280;5526;42.070;24.752;2023-04-28T05:47:57;99351.34;;;13.23;40.73
10948;BME280;5526;42.070;24.752;2023-04-28T05:50:24;99362.34;;;12.95;39.41
10948;BME280;5526;42.070;24.752;2023-04-28T05:52:52;99355.84;;;13.38;39.31
10948;BME280;5526;42.070;24.752;2023-04-28T05:55:19;99356.38;;;13.30;39.03
10948;BME280;5526;42.070;24.752;2023-04-28T05:57:46;99368.03;;;14.09;37.17
10948;BME280;5526;42.070;24.752;2023-04-28T06:00:15;99398.47;;;13.66;37.44
10948;BME280;5526;42.070;24.752;2023-04-28T06:02:42;99369.91;;;13.68;38.11
10948;BME280;5526;42.070;24.752;2023-04-28T06:05:09;99368.31;;;14.02;37.73
10948;BME280;5526;42.070;24.752;2023-04-28T06:07:36;99361.69;;;13.85;38.18
10948;BME280;5526;42.070;24.752;2023-04-28T06:10:04;99362.50;;;13.70;39.00
10948;BME280;5526;42.070;24.752;2023-04-28T06:12:31;99366.75;;;13.81;38.29
10948;BME280;5526;42.070;24.752;2023-04-28T06:14:58;99366.19;;;13.54;38.70
10948;BME280;5526;42.070;24.752;2023-04-28T06:17:27;99371.72;;;13.38;39.76
10948;BME280;5526;42.070;24.752;2023-04-28T06:19:55;99376.25;;;14.07;39.60
10948;BME280;5526;42.070;24.752;2023-04-28T06:22:23;99370.97;;;14.27;39.02
10948;BME280;5526;42.070;24.752;2023-04-28T06:24:50;99368.84;;;13.84;38.90
10948;BME280;5526;42.070;24.752;2023-04-28T06:27:17;99371.78;;;13.78;38.85
10948;BME280;5526;42.070;24.752;2023-04-28T06:29:44;99377.63;;;14.98;36.40
10948;BME280;5526;42.070;24.752;2023-04-28T06:32:11;99374.13;;;14.24;37.85
10948;BME280;5526;42.070;24.752;2023-04-28T06:34:39;99383.41;;;13.82;38.73
10948;BME280;5526;42.070;24.752;2023-04-28T06:37:06;99375.72;;;14.00;38.28
10948;BME280;5526;42.070;24.752;2023-04-28T06:39:33;99382.34;;;13.73;39.12
10948;BME280;5526;42.070;24.752;2023-04-28T06:42:00;99379.41;;;13.79;39.10
10948;BME280;5526;42.070;24.752;2023-04-28T06:44:28;99372.81;;;14.17;38.81
10948;BME280;5526;42.070;24.752;2023-04-28T06:46:55;99389.75;;;14.26;37.80
10948;BME280;5526;42.070;24.752;2023-04-28T06:49:22;99395.53;;;13.48;39.02
10948;BME280;5526;42.070;24.752;2023-04-28T06:51:51;99388.94;;;13.90;39.30
10948;BME280;5526;42.070;24.752;2023-04-28T06:54:18;99383.66;;;13.85;38.90
10948;BME280;5526;42.070;24.752;2023-04-28T06:56:45;99389.22;;;14.14;38.89
10948;BME280;5526;42.070;24.752;2023-04-28T06:59:12;99377.28;;;14.46;39.14
10948;BME280;5526;42.070;24.752;2023-04-28T07:01:39;99389.97;;;14.44;38.87
10948;BME280;5526;42.070;24.752;2023-04-28T07:04:06;99385.50;;;14.15;38.09
10948;BME280;5526;42.070;24.752;2023-04-28T07:06:33;99374.56;;;14.66;39.04
10948;BME280;5526;42.070;24.752;2023-04-28T07:09:02;99386.75;;;14.67;38.29
10948;BME280;5526;42.070;24.752;2023-04-28T07:11:29;99382.97;;;14.83;38.13
10948;BME280;5526;42.070;24.752;2023-04-28T07:13:57;99387.81;;;15.25;37.79
10948;BME280;5526;42.070;24.752;2023-04-28T07:16:25;99384.06;;;15.31;38.02
10948;BME280;5526;42.070;24.752;2023-04-28T07:18:52;99381.91;;;14.89;38.34
10948;BME280;5526;42.070;24.752;2023-04-28T07:21:19;99379.19;;;14.99;37.79
10948;BME280;5526;42.070;24.752;2023-04-28T07:23:46;99381.13;;;14.79;37.48
10948;BME280;5526;42.070;24.752;2023-04-28T07:26:15;99379.38;;;14.54;38.65
10948;BME280;5526;42.070;24.752;2023-04-28T07:28:42;99387.38;;;14.24;38.07
10948;BME280;5526;42.070;24.752;2023-04-28T07:31:10;99383.56;;;14.65;38.46
10948;BME280;5526;42.070;24.752;2023-04-28T07:33:37;99387.66;;;15.06;37.98
10948;BME280;5526;42.070;24.752;2023-04-28T07:36:04;99384.97;;;15.11;37.46
10948;BME280;5526;42.070;24.752;2023-04-28T07:38:33;99383.63;;;14.50;38.29
10948;BME280;5526;42.070;24.752;2023-04-28T07:41:00;99380.31;;;14.83;37.81
10948;BME280;5526;42.070;24.752;2023-04-28T07:43:28;99371.50;;;14.98;37.60
10948;BME280;5526;42.070;24.752;2023-04-28T07:45:55;99377.81;;;15.12;37.79
10948;BME280;5526;42.070;24.752;2023-04-28T07:48:22;99376.31;;;14.91;37.01
10948;BME280;5526;42.070;24.752;2023-04-28T07:50:49;99364.69;;;15.35;36.76
10948;BME280;5526;42.070;24.752;2023-04-28T07:53:16;99379.03;;;15.73;36.35
10948;BME280;5526;42.070;24.752;2023-04-28T07:55:43;99378.31;;;15.14;35.98
10948;BME280;5526;42.070;24.752;2023-04-28T07:58:10;99377.09;;;15.45;36.35
10948;BME280;5526;42.070;24.752;2023-04-28T08:00:39;99374.91;;;15.90;35.09
10948;BME280;5526;42.070;24.752;2023-04-28T08:03:06;99372.41;;;15.75;35.04
10948;BME280;5526;42.070;24.752;2023-04-28T08:05:32;99368.22;;;15.64;35.03
10948;BME280;5526;42.070;24.752;2023-04-28T08:08:00;99368.00;;;15.89;34.92
10948;BME280;5526;42.070;24.752;2023-04-28T08:10:27;99363.94;;;16.02;35.38
10948;BME280;5526;42.070;24.752;2023-04-28T08:12:54;99365.84;;;16.25;35.00
10948;BME280;5526;42.070;24.752;2023-04-28T08:15:21;99367.47;;;16.73;34.12
10948;BME280;5526;42.070;24.752;2023-04-28T08:17:49;99361.44;;;16.86;34.14
10948;BME280;5526;42.070;24.752;2023-04-28T08:20:16;99368.94;;;16.60;33.90
10948;BME280;5526;42.070;24.752;2023-04-28T08:22:44;99366.44;;;16.17;34.86
10948;BME280;5526;42.070;24.752;2023-04-28T08:25:11;99363.22;;;16.48;34.41
10948;BME280;5526;42.070;24.752;2023-04-28T08:27:38;99352.28;;;16.97;33.70
10948;BME280;5526;42.070;24.752;2023-04-28T08:30:06;99356.78;;;16.26;33.89
10948;BME280;5526;42.070;24.752;2023-04-28T08:32:33;99354.00;;;16.12;33.24
10948;BME280;5526;42.070;24.752;2023-04-28T08:35:02;99343.59;;;16.44;33.44
10948;BME280;5526;42.070;24.752;2023-04-28T08:37:29;99352.56;;;16.53;33.58
10948;BME280;5526;42.070;24.752;2023-04-28T08:39:56;99348.56;;;17.17;33.08
10948;BME280;5526;42.070;24.752;2023-04-28T08:42:28;99337.81;;;17.59;32.63
10948;BME280;5526;42.070;24.752;2023-04-28T08:44:56;99341.88;;;17.19;33.59
10948;BME280;5526;42.070;24.752;2023-04-28T08:47:32;99339.09;;;17.48;32.89
10948;BME280;5526;42.070;24.752;2023-04-28T08:50:02;99327.78;;;17.88;32.55
10948;BME280;5526;42.070;24.752;2023-04-28T08:52:30;99329.09;;;18.04;32.17
10948;BME280;5526;42.070;24.752;2023-04-28T08:54:58;99328.41;;;18.12;32.41
10948;BME280;5526;42.070;24.752;2023-04-28T08:57:26;99319.38;;;18.40;31.89
10948;BME280;5526;42.070;24.752;2023-04-28T08:59:53;99326.19;;;18.73;31.97
10948;BME280;5526;42.070;24.752;2023-04-28T09:02:20;99328.66;;;18.56;31.79
10948;BME280;5526;42.070;24.752;2023-04-28T09:04:47;99322.06;;;18.40;32.41
10948;BME280;5526;42.070;24.752;2023-04-28T09:07:15;99333.81;;;17.93;32.01
10948;BME280;5526;42.070;24.752;2023-04-28T09:09:42;99327.69;;;17.61;32.62
10948;BME280;5526;42.070;24.752;2023-04-28T09:12:10;99317.16;;;18.01;32.40
10948;BME280;5526;42.070;24.752;2023-04-28T09:14:37;99319.44;;;18.08;31.92
10948;BME280;5526;42.070;24.752;2023-04-28T09:17:09;99319.66;;;18.25;30.75
10948;BME280;5526;42.070;24.752;2023-04-28T09:19:38;99312.97;;;18.68;31.43
10948;BME280;5526;42.070;24.752;2023-04-28T09:22:07;99321.25;;;18.53;31.98
10948;BME280;5526;42.070;24.752;2023-04-28T09:24:37;99319.59;;;17.98;33.42
10948;BME280;5526;42.070;24.752;2023-04-28T09:27:06;99326.91;;;18.06;32.84
10948;BME280;5526;42.070;24.752;2023-04-28T09:29:36;99316.72;;;18.67;31.96
10948;BME280;5526;42.070;24.752;2023-04-28T09:32:13;99301.19;;;18.82;31.07
10948;BME280;5526;42.070;24.752;2023-04-28T09:34:44;99306.13;;;18.89;30.97
10948;BME280;5526;42.070;24.752;2023-04-28T09:37:15;99313.59;;;19.00;30.84
10948;BME280;5526;42.070;24.752;2023-04-28T09:39:44;99305.66;;;18.60;30.80
10948;BME280;5526;42.070;24.752;2023-04-28T09:42:30;99307.16;;;19.01;30.96
10948;BME280;5526;42.070;24.752;2023-04-28T09:44:58;99310.84;;;19.63;30.68
10948;BME280;5526;42.070;24.752;2023-04-28T09:47:26;99294.84;;;19.71;30.26
10948;BME280;5526;42.070;24.752;2023-04-28T09:49:53;99296.09;;;19.65;30.96
10948;BME280;5526;42.070;24.752;2023-04-28T09:52:21;99303.13;;;19.39;31.04
10948;BME280;5526;42.070;24.752;2023-04-28T09:54:52;99293.72;;;19.64;29.74
10948;BME280;5526;42.070;24.752;2023-04-28T09:57:19;99278.75;;;19.85;30.30
10948;BME280;5526;42.070;24.752;2023-04-28T09:59:50;99288.09;;;19.74;30.19
10948;BME280;5526;42.070;24.752;2023-04-28T10:02:19;99281.31;;;19.90;30.04
10948;BME280;5526;42.070;24.752;2023-04-28T10:04:47;99284.91;;;19.63;30.73
10948;BME280;5526;42.070;24.752;2023-04-28T10:07:15;99276.53;;;18.09;31.86
10948;BME280;5526;42.070;24.752;2023-04-28T10:09:42;99285.66;;;18.98;31.73
10948;BME280;5526;42.070;24.752;2023-04-28T10:12:13;99275.75;;;19.34;31.14
10948;BME280;5526;42.070;24.752;2023-04-28T10:14:41;99272.72;;;18.91;32.19
10948;BME280;5526;42.070;24.752;2023-04-28T10:17:09;99274.41;;;18.87;32.17
10948;BME280;5526;42.070;24.752;2023-04-28T10:19:37;99271.16;;;19.48;31.87
10948;BME280;5526;42.070;24.752;2023-04-28T10:22:23;99263.31;;;19.51;30.29
10948;BME280;5526;42.070;24.752;2023-04-28T10:25:11;99263.81;;;20.14;31.24
10948;BME280;5526;42.070;24.752;2023-04-28T10:27:48;99262.19;;;20.35;29.90
10948;BME280;5526;42.070;24.752;2023-04-28T10:30:17;99262.00;;;20.32;30.50
10948;BME280;5526;42.070;24.752;2023-04-28T10:32:44;99251.69;;;20.47;29.92
10948;BME280;5526;42.070;24.752;2023-04-28T10:35:39;99255.16;;;19.48;30.32
10948;BME280;5526;42.070;24.752;2023-04-28T10:38:08;99247.66;;;19.89;30.17
10948;BME280;5526;42.070;24.752;2023-04-28T10:40:37;99251.03;;;20.42;28.46
10948;BME280;5526;42.070;24.752;2023-04-28T10:43:07;99246.44;;;20.42;28.96
10948;BME280;5526;42.070;24.752;2023-04-28T10:45:59;99243.81;;;19.73;27.84
10948;BME280;5526;42.070;24.752;2023-04-28T10:51:31;99233.22;;;19.59;29.98
10948;BME280;5526;42.070;24.752;2023-04-28T10:54:14;99235.84;;;19.51;29.78
10948;BME280;5526;42.070;24.752;2023-04-28T10:57:18;99245.97;;;19.40;29.54
10948;BME280;5526;42.070;24.752;2023-04-28T10:59:47;99239.00;;;19.53;29.44
10948;BME280;5526;42.070;24.752;2023-04-28T11:02:37;99237.69;;;19.72;28.86
10948;BME280;5526;42.070;24.752;2023-04-28T11:05:18;99230.31;;;19.78;29.08
10948;BME280;5526;42.070;24.752;2023-04-28T11:11:14;99223.69;;;20.79;27.40
10948;BME280;5526;42.070;24.752;2023-04-28T11:13:41;99226.19;;;21.52;27.73
10948;BME280;5526;42.070;24.752;2023-04-28T11:16:14;99221.53;;;21.15;25.97
10948;BME280;5526;42.070;24.752;2023-04-28T11:18:50;99229.47;;;21.66;28.69
10948;BME280;5526;42.070;24.752;2023-04-28T11:21:17;99226.50;;;22.63;26.74
10948;BME280;5526;42.070;24.752;2023-04-28T11:23:45;99233.66;;;22.80;25.85
10948;BME280;5526;42.070;24.752;2023-04-28T11:26:12;99218.09;;;22.73;25.70
10948;BME280;5526;42.070;24.752;2023-04-28T11:28:52;99227.78;;;22.28;25.22
10948;BME280;5526;42.070;24.752;2023-04-28T11:31:22;99229.56;;;21.87;25.95
10948;BME280;5526;42.070;24.752;2023-04-28T11:33:56;99226.84;;;22.33;25.89
10948;BME280;5526;42.070;24.752;2023-04-28T11:36:34;99216.53;;;22.72;25.31
10948;BME280;5526;42.070;24.752;2023-04-28T11:39:02;99214.81;;;23.09;25.93
10948;BME280;5526;42.070;24.752;2023-04-28T11:41:32;99217.28;;;23.34;25.59
10948;BME280;5526;42.070;24.752;2023-04-28T11:44:00;99207.78;;;22.96;25.31
10948;BME280;5526;42.070;24.752;2023-04-28T11:46:28;99198.69;;;23.09;24.92
10948;BME280;5526;42.070;24.752;2023-04-28T11:49:02;99206.97;;;23.36;24.04
10948;BME280;5526;42.070;24.752;2023-04-28T11:51:34;99202.84;;;23.18;25.19
10948;BME280;5526;42.070;24.752;2023-04-28T11:54:03;99193.59;;;23.60;24.98
10948;BME280;5526;42.070;24.752;2023-04-28T11:56:36;99200.13;;;23.39;25.87
10948;BME280;5526;42.070;24.752;2023-04-28T11:59:04;99192.53;;;23.29;26.67
10948;BME280;5526;42.070;24.752;2023-04-28T12:01:42;99184.03;;;22.86;28.16
10948;BME280;5526;42.070;24.752;2023-04-28T12:04:10;99186.69;;;22.74;28.24
10948;BME280;5526;42.070;24.752;2023-04-28T12:06:38;99181.94;;;22.91;27.85
10948;BME280;5526;42.070;24.752;2023-04-28T12:09:16;99178.09;;;22.80;26.97
10948;BME280;5526;42.070;24.752;2023-04-28T12:11:53;99167.47;;;22.63;27.49
10948;BME280;5526;42.070;24.752;2023-04-28T12:14:21;99170.47;;;22.82;27.90
10948;BME280;5526;42.070;24.752;2023-04-28T12:16:50;99162.44;;;22.41;27.85
10948;BME280;5526;42.070;24.752;2023-04-28T12:19:17;99160.88;;;22.61;28.12
10948;BME280;5526;42.070;24.752;2023-04-28T12:22:01;99157.00;;;22.50;27.31
10948;BME280;5526;42.070;24.752;2023-04-28T12:24:28;99145.69;;;22.65;27.93
10948;BME280;5526;42.070;24.752;2023-04-28T12:27:13;99137.28;;;22.46;27.40
10948;BME280;5526;42.070;24.752;2023-04-28T12:29:42;99140.97;;;22.41;27.34
10948;BME280;5526;42.070;24.752;2023-04-28T12:32:12;99142.19;;;22.23;27.31
10948;BME280;5526;42.070;24.752;2023-04-28T12:34:40;99138.88;;;22.26;27.06
10948;BME280;5526;42.070;24.752;2023-04-28T12:37:07;99138.63;;;22.11;27.01
10948;BME280;5526;42.070;24.752;2023-04-28T12:39:35;99134.22;;;21.86;28.13
10948;BME280;5526;42.070;24.752;2023-04-28T12:42:02;99137.28;;;21.67;28.35
10948;BME280;5526;42.070;24.752;2023-04-28T12:44:34;99131.19;;;22.16;27.40
10948;BME280;5526;42.070;24.752;2023-04-28T12:47:03;99128.69;;;22.61;27.32
10948;BME280;5526;42.070;24.752;2023-04-28T12:49:32;99117.69;;;22.33;26.71
10948;BME280;5526;42.070;24.752;2023-04-28T12:51:59;99110.00;;;22.52;26.55
10948;BME280;5526;42.070;24.752;2023-04-28T12:54:26;99114.91;;;22.42;27.08
10948;BME280;5526;42.070;24.752;2023-04-28T12:56:53;99120.59;;;21.99;26.93
10948;BME280;5526;42.070;24.752;2023-04-28T12:59:21;99109.38;;;21.97;27.09
10948;BME280;5526;42.070;24.752;2023-04-28T13:01:48;99103.09;;;22.22;26.50
10948;BME280;5526;42.070;24.752;2023-04-28T13:04:15;99094.91;;;21.98;26.50
10948;BME280;5526;42.070;24.752;2023-04-28T13:06:44;99096.47;;;21.99;27.03
10948;BME280;5526;42.070;24.752;2023-04-28T13:09:11;99092.03;;;22.24;27.15
10948;BME280;5526;42.070;24.752;2023-04-28T13:11:39;99087.31;;;22.62;27.25
10948;BME280;5526;42.070;24.752;2023-04-28T13:14:06;99088.66;;;22.88;26.73